Time;durP1;ratioP1;P1;durP2;ratioP2;P2;SDS_P1;SDS_P2;PMS_P1;PMS_P2;Temp;Humidity;BMP_temperature;BMP_pressure;BME280_temperature;BME280_humidity;BME280_pressure;Samples;Min_cycle;Max_cycle;Signal;HPM_P1;HPM_P2
2020/12/07 00:00:18;;;;;;;18.25;15.90;;;8.00;1.00;;;;;;5016298;28;20964;-75
2020/12/07 00:02:44;;;;;;;19.35;16.33;;;8.00;1.00;;;;;;5033688;28;20226;-75
2020/12/07 00:05:11;;;;;;;18.15;15.88;;;8.00;1.00;;;;;;5023907;28;20256;-75
2020/12/07 00:07:37;;;;;;;20.63;16.58;;;8.00;1.00;;;;;;5032392;28;20333;-75
2020/12/07 00:10:04;;;;;;;19.10;16.08;;;8.00;1.00;;;;;;5013822;28;20289;-75
2020/12/07 00:12:31;;;;;;;19.40;17.38;;;7.90;1.00;;;;;;5028825;28;20227;-75
2020/12/07 00:14:58;;;;;;;18.10;15.45;;;7.90;1.00;;;;;;5014550;28;20293;-75
2020/12/07 00:17:25;;;;;;;20.75;16.52;;;7.90;1.00;;;;;;5030118;28;20218;-75
2020/12/07 00:19:52;;;;;;;20.13;16.77;;;7.80;1.00;;;;;;5027712;28;20228;-75
2020/12/07 00:22:22;;;;;;;18.73;15.63;;;7.90;1.00;;;;;;5015569;28;20280;-74
2020/12/07 00:24:49;;;;;;;20.55;16.88;;;7.80;1.00;;;;;;5024862;28;20233;-75
2020/12/07 00:27:21;;;;;;;21.20;17.48;;;7.80;1.00;;;;;;4996101;28;20262;-76
2020/12/07 00:29:47;;;;;;;21.77;16.58;;;7.80;1.00;;;;;;5027711;28;20284;-76
2020/12/07 00:32:14;;;;;;;18.98;15.70;;;7.90;1.00;;;;;;5008308;28;20238;-75
2020/12/07 00:34:40;;;;;;;18.02;15.75;;;7.90;1.00;;;;;;5029508;28;20329;-74
2020/12/07 00:37:07;;;;;;;18.30;15.82;;;7.90;1.00;;;;;;5003439;28;20226;-74
2020/12/07 00:39:33;;;;;;;18.48;15.82;;;7.90;1.00;;;;;;5034463;28;20224;-75
2020/12/07 00:41:59;;;;;;;18.40;15.95;;;7.90;1.00;;;;;;5009500;28;20218;-74
2020/12/07 00:44:26;;;;;;;20.45;14.82;;;8.00;1.00;;;;;;5027279;28;20233;-74
2020/12/07 00:46:53;;;;;;;17.20;14.77;;;8.00;1.00;;;;;;5013366;28;20277;-74
2020/12/07 00:49:19;;;;;;;18.17;15.10;;;8.00;1.00;;;;;;5036268;28;20236;-73
2020/12/07 00:51:46;;;;;;;20.25;16.00;;;8.00;1.00;;;;;;5020553;28;20237;-73
2020/12/07 00:54:12;;;;;;;17.38;14.73;;;8.00;1.00;;;;;;5039793;28;20240;-75
2020/12/07 00:56:39;;;;;;;17.95;15.55;;;8.00;1.00;;;;;;5017667;28;20218;-74
2020/12/07 00:59:05;;;;;;;15.95;14.20;;;8.00;1.00;;;;;;5034816;28;20234;-74
2020/12/07 01:01:32;;;;;;;17.98;14.80;;;8.00;1.00;;;;;;5028072;28;20232;-74
2020/12/07 01:03:58;;;;;;;17.50;14.77;;;8.00;1.00;;;;;;5008950;28;20749;-74
2020/12/07 01:06:28;;;;;;;18.17;15.63;;;8.00;1.00;;;;;;5029852;28;20249;-75
2020/12/07 01:08:55;;;;;;;18.50;14.60;;;8.00;1.00;;;;;;5007406;28;20230;-74
2020/12/07 01:11:21;;;;;;;19.00;15.68;;;8.00;1.00;;;;;;5030982;28;20333;-75
2020/12/07 01:13:47;;;;;;;17.02;14.05;;;8.00;1.00;;;;;;5004733;28;20271;-75
2020/12/07 01:16:18;;;;;;;18.00;15.30;;;8.00;1.00;;;;;;5025932;28;20232;-75
2020/12/07 01:18:46;;;;;;;18.45;15.00;;;8.00;1.00;;;;;;5002341;28;20218;-74
2020/12/07 01:21:12;;;;;;;19.42;15.93;;;8.00;1.00;;;;;;5016261;28;20218;-75
2020/12/07 01:23:40;;;;;;;19.52;15.73;;;8.00;1.00;;;;;;5005372;28;20220;-75
2020/12/07 01:26:06;;;;;;;19.15;15.80;;;7.90;1.00;;;;;;5020320;28;20226;-74
2020/12/07 01:28:33;;;;;;;18.48;15.75;;;8.00;1.00;;;;;;5004680;28;20222;-75
2020/12/07 01:30:59;;;;;;;18.10;13.90;;;7.90;1.00;;;;;;5027310;28;20237;-74
2020/12/07 01:33:25;;;;;;;18.30;15.95;;;7.90;1.00;;;;;;5013964;28;21475;-75
2020/12/07 01:35:52;;;;;;;19.80;17.65;;;7.90;1.00;;;;;;5028369;28;20725;-75
2020/12/07 01:38:18;;;;;;;18.23;15.05;;;7.80;1.00;;;;;;5011114;28;20245;-75
2020/12/07 01:40:44;;;;;;;17.38;15.45;;;7.80;1.00;;;;;;5026452;28;20227;-74
2020/12/07 01:43:10;;;;;;;20.23;16.08;;;7.80;1.00;;;;;;5029037;28;20228;-75
2020/12/07 01:45:37;;;;;;;19.85;15.40;;;7.80;1.00;;;;;;5017047;28;21133;-74
2020/12/07 01:48:03;;;;;;;17.38;14.80;;;7.80;1.00;;;;;;5022953;28;20234;-75
2020/12/07 01:50:30;;;;;;;18.02;16.00;;;7.70;1.00;;;;;;5010034;28;20254;-75
2020/12/07 01:52:58;;;;;;;20.13;15.88;;;7.70;1.00;;;;;;5024481;28;20246;-74
2020/12/07 01:55:24;;;;;;;23.35;15.77;;;7.70;1.00;;;;;;5019511;28;20301;-74
2020/12/07 01:57:51;;;;;;;18.73;15.07;;;7.60;1.00;;;;;;5025811;28;20260;-74
2020/12/07 02:00:18;;;;;;;20.15;15.70;;;7.60;1.00;;;;;;5007158;28;20222;-74
2020/12/07 02:02:44;;;;;;;19.13;15.93;;;7.60;1.00;;;;;;5027611;28;20315;-74
2020/12/07 02:05:10;;;;;;;19.55;16.15;;;7.60;1.00;;;;;;5012480;28;20291;-74
2020/12/07 02:07:37;;;;;;;17.45;15.07;;;7.70;1.00;;;;;;5030092;28;20309;-73
2020/12/07 02:10:04;;;;;;;19.17;16.15;;;7.70;1.00;;;;;;4990374;28;20324;-75
2020/12/07 02:12:30;;;;;;;18.70;16.60;;;7.70;1.00;;;;;;5025744;28;20222;-72
2020/12/07 02:14:56;;;;;;;20.50;16.02;;;7.70;1.00;;;;;;5010701;28;20306;-75
2020/12/07 02:17:22;;;;;;;21.42;16.48;;;7.70;1.00;;;;;;5010048;28;20222;-74
2020/12/07 02:19:50;;;;;;;20.77;16.27;;;7.70;1.00;;;;;;4992689;28;20226;-74
2020/12/07 02:22:16;;;;;;;19.77;16.25;;;7.70;1.00;;;;;;5009993;28;20321;-75
2020/12/07 02:24:42;;;;;;;19.23;17.20;;;7.60;1.00;;;;;;5029296;28;20220;-75
2020/12/07 02:27:09;;;;;;;21.83;18.35;;;7.50;1.00;;;;;;5016559;28;20285;-75
2020/12/07 02:29:35;;;;;;;19.77;16.88;;;7.60;1.00;;;;;;5030467;28;20773;-75
2020/12/07 02:32:11;;;;;;;18.90;15.05;;;7.50;1.00;;;;;;5008723;28;20217;-75
2020/12/07 02:34:38;;;;;;;21.65;16.77;;;7.50;1.00;;;;;;5030090;28;20967;-75
2020/12/07 02:37:05;;;;;;;23.25;17.67;;;7.40;1.00;;;;;;5004671;28;20558;-75
2020/12/07 02:39:31;;;;;;;20.35;16.73;;;7.40;1.00;;;;;;5034886;28;20336;-75
2020/12/07 02:41:57;;;;;;;20.98;16.55;;;7.40;1.00;;;;;;5008929;28;20218;-75
2020/12/07 02:44:23;;;;;;;20.30;15.95;;;7.50;1.00;;;;;;5031005;28;20318;-75
2020/12/07 02:46:49;;;;;;;21.25;17.48;;;7.50;1.00;;;;;;5015408;28;20230;-75
2020/12/07 02:49:16;;;;;;;19.88;16.65;;;7.50;1.00;;;;;;5049870;28;20249;-74
2020/12/07 02:51:42;;;;;;;19.80;17.02;;;7.50;1.00;;;;;;5025213;28;20234;-73
2020/12/07 02:54:09;;;;;;;20.00;16.90;;;7.50;1.00;;;;;;5047186;28;20241;-74
2020/12/07 02:56:35;;;;;;;22.25;16.48;;;7.50;1.00;;;;;;5025362;28;20229;-74
2020/12/07 02:59:01;;;;;;;19.83;16.40;;;7.50;1.00;;;;;;5040078;28;20265;-74
2020/12/07 03:01:27;;;;;;;19.10;16.95;;;7.60;1.00;;;;;;5007790;28;20678;-74
2020/12/07 03:03:53;;;;;;;18.30;15.68;;;7.60;1.00;;;;;;5028215;28;21139;-74
2020/12/07 03:06:19;;;;;;;17.25;15.35;;;7.70;1.00;;;;;;5031721;28;20229;-74
2020/12/07 03:08:45;;;;;;;22.13;16.35;;;7.70;1.00;;;;;;5007767;28;20232;-74
2020/12/07 03:11:13;;;;;;;21.85;17.45;;;7.70;1.00;;;;;;5028093;28;20232;-73
2020/12/07 03:13:39;;;;;;;19.80;16.65;;;7.70;1.00;;;;;;5015538;28;21206;-74
2020/12/07 03:16:05;;;;;;;18.58;15.70;;;7.80;1.00;;;;;;5026744;28;20222;-74
2020/12/07 03:18:31;;;;;;;17.55;15.40;;;7.80;1.00;;;;;;4994931;28;20230;-73
2020/12/07 03:20:57;;;;;;;18.05;15.85;;;7.80;1.00;;;;;;5028652;28;20226;-74
2020/12/07 03:23:23;;;;;;;19.23;14.57;;;7.80;1.00;;;;;;5005508;28;20356;-74
2020/12/07 03:25:49;;;;;;;17.77;15.60;;;7.80;1.00;;;;;;5022654;28;20242;-74
2020/12/07 03:28:16;;;;;;;17.77;14.88;;;7.70;1.00;;;;;;5015141;28;20214;-73
2020/12/07 03:30:42;;;;;;;18.67;14.70;;;7.80;1.00;;;;;;5031045;28;20224;-74
2020/12/07 03:33:09;;;;;;;20.10;16.50;;;7.80;1.00;;;;;;5016413;28;20234;-74
2020/12/07 03:35:35;;;;;;;19.95;14.80;;;7.80;1.00;;;;;;5027837;28;20234;-74
2020/12/07 03:38:01;;;;;;;17.55;15.70;;;7.80;1.00;;;;;;5012880;28;20254;-74
2020/12/07 03:40:27;;;;;;;18.42;16.48;;;7.80;1.00;;;;;;5032078;28;20225;-74
2020/12/07 03:42:53;;;;;;;17.13;14.82;;;7.80;1.00;;;;;;5023807;28;20226;-73
2020/12/07 03:45:20;;;;;;;19.08;15.52;;;7.80;1.00;;;;;;5020523;28;20230;-74
2020/12/07 03:47:46;;;;;;;20.00;16.52;;;7.80;1.00;;;;;;5026524;28;20223;-73
2020/12/07 03:50:12;;;;;;;19.75;16.23;;;7.80;1.00;;;;;;4993296;28;20218;-74
2020/12/07 03:52:38;;;;;;;18.02;15.27;;;7.80;1.00;;;;;;5029198;28;20226;-73
2020/12/07 03:55:05;;;;;;;18.92;15.80;;;7.90;1.00;;;;;;5010850;28;20865;-74
2020/12/07 03:57:31;;;;;;;19.95;16.95;;;7.80;1.00;;;;;;5014450;28;20526;-74
2020/12/07 03:59:57;;;;;;;18.20;15.63;;;7.80;1.00;;;;;;5010579;28;20711;-73
2020/12/07 04:02:24;;;;;;;17.55;15.55;;;7.80;1.00;;;;;;5029993;28;20713;-74
2020/12/07 04:04:53;;;;;;;20.48;16.48;;;7.80;1.00;;;;;;5011524;28;21239;-74
2020/12/07 04:07:19;;;;;;;18.77;15.07;;;7.80;1.00;;;;;;5008994;28;20285;-74
2020/12/07 04:09:45;;;;;;;18.05;14.60;;;7.80;1.00;;;;;;4998057;28;20241;-74
2020/12/07 04:12:13;;;;;;;20.10;15.95;;;7.80;1.00;;;;;;5026188;28;20770;-74
2020/12/07 04:14:39;;;;;;;18.73;15.55;;;7.80;1.00;;;;;;5011391;28;20231;-74
2020/12/07 04:17:05;;;;;;;25.42;16.70;;;7.80;1.00;;;;;;5027339;28;20364;-74
2020/12/07 04:19:32;;;;;;;20.30;15.07;;;7.80;1.00;;;;;;5009730;28;20264;-74
2020/12/07 04:21:58;;;;;;;18.48;16.48;;;7.80;1.00;;;;;;5024744;28;20214;-74
2020/12/07 04:24:24;;;;;;;18.15;14.98;;;7.80;1.00;;;;;;5027579;28;20282;-73
2020/12/07 04:26:51;;;;;;;20.85;16.48;;;7.80;1.00;;;;;;5007045;28;20756;-73
2020/12/07 04:29:17;;;;;;;18.42;16.13;;;7.80;1.00;;;;;;5032546;28;20876;-74
2020/12/07 04:31:43;;;;;;;18.25;15.40;;;7.80;1.00;;;;;;5011732;28;20325;-72
2020/12/07 04:34:09;;;;;;;18.73;15.80;;;7.90;1.00;;;;;;5028043;28;20242;-73
2020/12/07 04:36:36;;;;;;;17.30;15.45;;;7.90;1.00;;;;;;5014631;28;20233;-73
2020/12/07 04:39:03;;;;;;;20.92;15.75;;;7.90;1.00;;;;;;5030696;28;20229;-73
2020/12/07 04:41:29;;;;;;;18.15;16.25;;;7.90;1.00;;;;;;5012216;28;20257;-72
2020/12/07 04:43:56;;;;;;;17.35;15.10;;;7.90;1.00;;;;;;5026217;28;21115;-73
2020/12/07 04:46:23;;;;;;;17.98;14.90;;;7.90;1.00;;;;;;5010242;28;20858;-73
2020/12/07 04:48:53;;;;;;;18.95;15.40;;;7.80;1.00;;;;;;5030373;28;20225;-72
2020/12/07 04:51:20;;;;;;;20.75;16.25;;;7.80;1.00;;;;;;5018378;28;20317;-74
2020/12/07 04:53:48;;;;;;;19.83;16.50;;;7.80;1.00;;;;;;5027394;28;20313;-74
2020/12/07 04:56:15;;;;;;;19.13;17.05;;;7.80;1.00;;;;;;5008664;28;20978;-75
2020/12/07 04:58:43;;;;;;;20.70;16.52;;;7.90;1.00;;;;;;5026324;28;20218;-75
2020/12/07 05:01:10;;;;;;;20.75;16.42;;;8.00;1.00;;;;;;5009868;28;20233;-75
2020/12/07 05:03:36;;;;;;;21.40;17.27;;;7.90;1.00;;;;;;5025790;28;20277;-74
2020/12/07 05:06:04;;;;;;;20.35;16.50;;;7.80;1.00;;;;;;5029823;28;20865;-74
2020/12/07 05:08:32;;;;;;;17.50;15.55;;;7.80;1.00;;;;;;5016512;28;20723;-74
2020/12/07 05:11:01;;;;;;;20.58;17.90;;;7.80;1.00;;;;;;5026209;28;20327;-75
2020/12/07 05:13:33;;;;;;;26.08;19.08;;;7.70;1.00;;;;;;5017647;28;20276;-74
2020/12/07 05:15:59;;;;;;;20.80;16.58;;;7.70;1.00;;;;;;5029288;28;20226;-74
2020/12/07 05:18:25;;;;;;;19.48;16.60;;;7.60;1.00;;;;;;5021246;28;20305;-75
2020/12/07 05:20:52;;;;;;;26.80;23.75;;;7.60;1.00;;;;;;5022872;28;20285;-75
2020/12/07 05:23:18;;;;;;;21.88;19.67;;;7.60;1.00;;;;;;5011204;28;20233;-74
2020/12/07 05:25:46;;;;;;;20.27;17.98;;;7.60;1.00;;;;;;5032891;28;20708;-74
2020/12/07 05:28:21;;;;;;;19.52;16.15;;;7.60;1.00;;;;;;5028248;28;20226;-74
2020/12/07 05:30:49;;;;;;;18.23;16.13;;;7.60;1.00;;;;;;5041471;28;20233;-74
2020/12/07 05:33:17;;;;;;;17.55;14.80;;;7.60;1.00;;;;;;5029252;28;20426;-74
2020/12/07 05:35:51;;;;;;;17.77;15.85;;;7.60;1.00;;;;;;5044158;28;20279;-76
2020/12/07 05:38:18;;;;;;;17.20;15.40;;;7.50;1.00;;;;;;5012768;28;20229;-75
2020/12/07 05:40:44;;;;;;;19.73;16.45;;;7.50;1.00;;;;;;5023841;28;20253;-75
2020/12/07 05:43:13;;;;;;;21.00;17.55;;;7.50;1.00;;;;;;5011129;28;20226;-74
2020/12/07 05:45:40;;;;;;;25.40;17.35;;;7.50;1.00;;;;;;5028562;28;20222;-74
2020/12/07 05:48:10;;;;;;;20.77;16.63;;;7.40;1.00;;;;;;5008329;28;20246;-74
2020/12/07 05:50:43;;;;;;;22.02;17.60;;;7.40;1.00;;;;;;5012537;28;20273;-74
2020/12/07 05:53:10;;;;;;;24.08;18.08;;;7.40;1.00;;;;;;5006597;28;20253;-74
2020/12/07 05:55:36;;;;;;;20.55;17.35;;;7.40;1.00;;;;;;5024466;28;20225;-75
2020/12/07 05:58:04;;;;;;;21.02;16.30;;;7.40;1.00;;;;;;5021670;28;20230;-74
2020/12/07 06:00:33;;;;;;;19.50;15.93;;;7.40;1.00;;;;;;5006954;28;20228;-75
2020/12/07 06:03:00;;;;;;;20.10;16.02;;;7.40;1.00;;;;;;5029222;28;20223;-73
2020/12/07 06:05:27;;;;;;;21.45;18.17;;;7.30;1.00;;;;;;5017894;28;20221;-75
2020/12/07 06:07:57;;;;;;;21.23;17.25;;;7.30;1.00;;;;;;5031354;28;20229;-74
2020/12/07 06:10:28;;;;;;;24.42;16.75;;;7.30;1.00;;;;;;5013134;28;20238;-73
2020/12/07 06:12:57;;;;;;;20.77;16.35;;;7.30;1.00;;;;;;5026814;28;20238;-74
2020/12/07 06:15:26;;;;;;;21.08;18.08;;;7.30;1.00;;;;;;5012500;28;22498;-74
2020/12/07 06:17:53;;;;;;;22.65;19.88;;;7.30;1.00;;;;;;5014124;28;20294;-74
2020/12/07 06:20:27;;;;;;;34.58;30.88;;;7.30;1.00;;;;;;5013534;28;20235;-74
2020/12/07 06:22:55;;;;;;;22.35;15.80;;;7.20;1.00;;;;;;5020305;28;20223;-75
2020/12/07 06:25:22;;;;;;;19.20;16.25;;;7.20;1.00;;;;;;4996493;28;20219;-74
2020/12/07 06:27:48;;;;;;;20.35;18.23;;;7.20;1.00;;;;;;5023746;28;20246;-75
2020/12/07 06:30:18;;;;;;;18.85;16.38;;;7.20;1.00;;;;;;5003934;28;20223;-74
2020/12/07 06:32:47;;;;;;;19.42;16.63;;;7.10;1.00;;;;;;5028724;28;21032;-75
2020/12/07 06:35:15;;;;;;;18.27;16.38;;;7.20;1.00;;;;;;5008951;28;20245;-76
2020/12/07 06:37:46;;;;;;;20.95;18.30;;;7.10;1.00;;;;;;5025073;28;20225;-76
2020/12/07 06:40:13;;;;;;;19.90;17.85;;;7.10;1.00;;;;;;5012680;28;20226;-75
2020/12/07 06:42:40;;;;;;;25.33;20.95;;;7.10;1.00;;;;;;5023659;28;21627;-75
2020/12/07 06:45:09;;;;;;;22.13;18.33;;;7.10;1.00;;;;;;5003677;28;20276;-76
2020/12/07 06:47:40;;;;;;;18.58;16.67;;;6.90;1.00;;;;;;5025837;28;20298;-75
2020/12/07 06:50:14;;;;;;;20.33;16.67;;;7.00;1.00;;;;;;5026949;28;20714;-76
2020/12/07 06:52:46;;;;;;;21.52;17.30;;;6.90;1.00;;;;;;5025963;28;20221;-75
2020/12/07 06:55:14;;;;;;;21.48;17.95;;;6.90;1.00;;;;;;5028933;28;20292;-74
2020/12/07 06:57:42;;;;;;;21.88;18.55;;;7.00;1.00;;;;;;5009639;28;20219;-74
2020/12/07 07:00:12;;;;;;;19.77;17.23;;;7.00;1.00;;;;;;5029664;28;20867;-74
2020/12/07 07:02:39;;;;;;;22.52;18.63;;;7.00;1.00;;;;;;4992388;28;20297;-75
2020/12/07 07:05:06;;;;;;;23.42;18.20;;;6.90;1.00;;;;;;5027181;28;20772;-75
2020/12/07 07:07:33;;;;;;;22.38;16.48;;;6.90;1.00;;;;;;5013645;28;20305;-74
2020/12/07 07:10:00;;;;;;;20.75;17.63;;;6.90;1.00;;;;;;5028560;28;20226;-75
2020/12/07 07:12:27;;;;;;;23.55;17.98;;;6.90;1.00;;;;;;5021194;28;20268;-73
2020/12/07 07:14:56;;;;;;;19.67;16.65;;;6.90;1.00;;;;;;5044453;28;20246;-73
2020/12/07 07:17:23;;;;;;;20.95;17.20;;;6.80;1.00;;;;;;5022716;28;20238;-75
2020/12/07 07:19:49;;;;;;;22.90;17.77;;;6.80;1.00;;;;;;5025345;28;20294;-75
2020/12/07 07:22:16;;;;;;;21.58;17.88;;;6.80;1.00;;;;;;5006722;28;20222;-74
2020/12/07 07:24:48;;;;;;;25.63;17.40;;;6.90;1.00;;;;;;5033736;28;20218;-74
2020/12/07 07:30:00;;;;;;;22.10;17.33;;;6.90;1.00;;;;;;5030684;28;20267;-76
2020/12/07 07:32:26;;;;;;;21.25;17.45;;;6.90;1.00;;;;;;5008391;28;20309;-74
2020/12/07 07:34:52;;;;;;;18.67;16.67;;;6.90;1.00;;;;;;5034058;28;20262;-73
2020/12/07 07:37:19;;;;;;;19.27;16.40;;;7.00;1.00;;;;;;5011688;28;21346;-74
2020/12/07 07:39:47;;;;;;;22.08;17.95;;;6.90;1.00;;;;;;5024074;28;20300;-73
2020/12/07 07:42:15;;;;;;;18.33;16.17;;;7.00;1.00;;;;;;5007163;28;20222;-76
2020/12/07 07:44:45;;;;;;;23.48;17.00;;;6.90;1.00;;;;;;5025447;28;20230;-75
2020/12/07 07:47:16;;;;;;;21.58;17.83;;;6.90;1.00;;;;;;5025480;28;20334;-74
2020/12/07 07:50:08;;;;;;;21.25;17.80;;;6.80;1.00;;;;;;5002226;28;21019;-74
2020/12/07 08:15:22;;;;;;;21.35;16.80;;;7.00;1.00;;;;;;5009279;28;20237;-73
2020/12/07 08:17:50;;;;;;;19.25;17.10;;;7.00;1.00;;;;;;5025286;28;20226;-73
2020/12/07 08:20:17;;;;;;;19.20;15.63;;;7.00;1.00;;;;;;5003222;28;20226;-75
2020/12/07 08:22:55;;;;;;;19.60;16.65;;;7.00;1.00;;;;;;5025622;28;20250;-74
2020/12/07 08:25:37;;;;;;;18.33;15.45;;;7.00;1.00;;;;;;5009551;28;20210;-74
2020/12/07 08:28:14;;;;;;;21.98;18.10;;;7.00;1.00;;;;;;5027941;28;20254;-73
2020/12/07 08:30:40;;;;;;;20.92;17.17;;;7.00;1.00;;;;;;5015603;28;20332;-73
2020/12/07 08:33:11;;;;;;;19.13;17.13;;;7.20;1.00;;;;;;5028022;28;20588;-72
2020/12/07 08:35:37;;;;;;;23.02;16.60;;;7.20;1.00;;;;;;5012894;28;20249;-73
2020/12/07 08:38:03;;;;;;;21.70;17.65;;;7.20;1.00;;;;;;5031412;28;20233;-73
2020/12/07 08:40:30;;;;;;;26.85;18.73;;;7.30;1.00;;;;;;5007981;28;20233;-73
2020/12/07 08:42:56;;;;;;;21.90;17.67;;;7.20;1.00;;;;;;5030751;28;20793;-73
2020/12/07 08:45:22;;;;;;;21.58;17.25;;;7.20;1.00;;;;;;5011145;28;20222;-73
2020/12/07 08:47:48;;;;;;;21.23;17.02;;;7.20;1.00;;;;;;5033342;28;20281;-74
2020/12/07 08:50:15;;;;;;;25.27;17.50;;;7.30;1.00;;;;;;5011751;28;20309;-73
2020/12/07 08:52:41;;;;;;;20.33;17.35;;;7.20;1.00;;;;;;5029709;28;20230;-72
2020/12/07 08:55:07;;;;;;;28.40;20.20;;;7.30;1.00;;;;;;5015526;28;20324;-74
2020/12/07 08:57:34;;;;;;;19.33;16.50;;;7.20;1.00;;;;;;5031882;28;20300;-75
2020/12/07 09:00:00;;;;;;;16.83;15.10;;;7.20;1.00;;;;;;5031609;28;20270;-71
2020/12/07 09:02:26;;;;;;;18.83;16.80;;;7.20;1.00;;;;;;5008674;28;20301;-70
2020/12/07 09:04:52;;;;;;;21.20;15.93;;;7.20;1.00;;;;;;5032573;28;20645;-74
2020/12/07 09:07:19;;;;;;;21.58;15.85;;;7.20;1.00;;;;;;5015403;28;20455;-73
2020/12/07 09:09:45;;;;;;;18.58;16.70;;;7.30;1.00;;;;;;5026751;28;20281;-72
2020/12/07 09:12:11;;;;;;;20.20;15.93;;;7.30;1.00;;;;;;5014518;28;20232;-73
2020/12/07 09:14:37;;;;;;;19.70;16.25;;;7.30;1.00;;;;;;5027235;28;20970;-73
2020/12/07 09:17:03;;;;;;;24.63;18.40;;;7.30;1.00;;;;;;4993426;28;20222;-73
2020/12/07 09:19:29;;;;;;;20.80;16.17;;;7.40;1.00;;;;;;5028598;28;20702;-73
2020/12/07 09:21:56;;;;;;;22.67;16.98;;;7.40;1.00;;;;;;4975788;28;21195;-73
2020/12/07 09:24:23;;;;;;;18.85;16.60;;;7.40;1.00;;;;;;5018107;28;20644;-73
2020/12/07 09:26:50;;;;;;;21.38;16.05;;;7.40;1.00;;;;;;4970523;28;20233;-74
2020/12/07 09:29:16;;;;;;;26.85;19.63;;;7.40;1.00;;;;;;5024934;28;20234;-74
2020/12/07 09:31:42;;;;;;;20.58;16.77;;;7.40;1.00;;;;;;5010784;28;20250;-73
2020/12/07 09:34:08;;;;;;;22.90;17.48;;;7.40;1.00;;;;;;5027974;28;20945;-72
2020/12/07 09:36:34;;;;;;;24.60;16.95;;;7.40;1.00;;;;;;5009609;28;20255;-75
2020/12/07 09:39:00;;;;;;;20.75;17.27;;;7.40;1.00;;;;;;5033086;28;21360;-73
2020/12/07 09:41:27;;;;;;;21.65;16.05;;;7.50;1.00;;;;;;5016094;28;20718;-74
2020/12/07 09:43:53;;;;;;;21.90;17.80;;;7.50;1.00;;;;;;5033534;28;20222;-72
2020/12/07 09:46:20;;;;;;;20.95;17.30;;;7.50;1.00;;;;;;5021254;28;20237;-72
2020/12/07 09:48:46;;;;;;;19.63;16.67;;;7.50;1.00;;;;;;5037458;28;20222;-72
2020/12/07 09:51:12;;;;;;;20.30;15.60;;;7.50;1.00;;;;;;5014514;28;20313;-74
2020/12/07 09:53:38;;;;;;;19.25;16.85;;;7.50;1.00;;;;;;5040264;28;20233;-74
2020/12/07 09:56:04;;;;;;;21.45;17.75;;;7.40;1.00;;;;;;5018810;28;20258;-73
2020/12/07 09:58:31;;;;;;;19.17;15.80;;;7.40;1.00;;;;;;5030188;28;20322;-75
2020/12/07 10:00:57;;;;;;;17.88;15.35;;;7.50;1.00;;;;;;5018089;28;20325;-74
2020/12/07 10:03:23;;;;;;;21.45;16.67;;;7.40;1.00;;;;;;5025168;28;20231;-75
2020/12/07 10:05:50;;;;;;;23.42;16.88;;;7.50;1.00;;;;;;5033773;28;20715;-73
2020/12/07 10:08:16;;;;;;;19.85;16.40;;;7.50;1.00;;;;;;5014350;28;20315;-74
2020/12/07 10:10:42;;;;;;;21.98;16.27;;;7.50;1.00;;;;;;5029761;28;20219;-73
2020/12/07 10:13:09;;;;;;;19.27;15.90;;;7.50;1.00;;;;;;5022846;28;20240;-72
2020/12/07 10:15:36;;;;;;;21.92;16.30;;;7.50;1.00;;;;;;5041057;28;20324;-72
2020/12/07 10:18:02;;;;;;;17.90;15.98;;;7.50;1.00;;;;;;5007438;28;20255;-72
2020/12/07 10:20:28;;;;;;;22.65;16.70;;;7.50;1.00;;;;;;5035237;28;20223;-73
2020/12/07 10:22:55;;;;;;;20.60;17.20;;;7.60;1.00;;;;;;5007193;28;20225;-72
2020/12/07 10:25:21;;;;;;;23.60;17.40;;;7.60;1.00;;;;;;5030213;28;20222;-71
2020/12/07 10:27:47;;;;;;;22.80;16.98;;;7.60;1.00;;;;;;5017444;28;20318;-73
2020/12/07 10:30:14;;;;;;;27.52;18.10;;;7.60;1.00;;;;;;5027704;28;20227;-74
2020/12/07 10:32:41;;;;;;;24.50;18.48;;;7.60;1.00;;;;;;4996427;28;20238;-73
2020/12/07 10:35:07;;;;;;;24.02;20.15;;;7.70;1.00;;;;;;5011097;28;20440;-73
2020/12/07 10:37:33;;;;;;;23.63;18.73;;;7.70;1.00;;;;;;5023028;28;20225;-73
2020/12/07 10:40:00;;;;;;;24.00;18.77;;;7.80;1.00;;;;;;5008865;28;20401;-73
2020/12/07 10:42:26;;;;;;;20.83;17.48;;;7.70;1.00;;;;;;5023245;28;20230;-73
2020/12/07 10:44:52;;;;;;;19.73;16.98;;;7.70;1.00;;;;;;5011337;28;20316;-73
2020/12/07 10:47:19;;;;;;;23.48;16.40;;;7.70;1.00;;;;;;4959521;28;20249;-72
2020/12/07 10:49:46;;;;;;;20.23;17.20;;;7.70;1.00;;;;;;4976723;28;20233;-72
2020/12/07 10:52:13;;;;;;;22.65;16.88;;;7.70;1.00;;;;;;5020560;28;20218;-72
2020/12/07 10:54:39;;;;;;;21.92;16.92;;;7.70;1.00;;;;;;4991241;28;20309;-71
2020/12/07 10:57:05;;;;;;;19.98;16.42;;;7.70;1.00;;;;;;5047269;28;20226;-70
2020/12/07 10:59:31;;;;;;;24.85;17.88;;;7.70;1.00;;;;;;5027096;28;20221;-75
2020/12/07 11:01:57;;;;;;;20.95;16.73;;;7.80;1.00;;;;;;5042352;28;20222;-73
2020/12/07 11:04:24;;;;;;;22.02;15.45;;;7.80;1.00;;;;;;5027091;28;20328;-72
2020/12/07 11:06:53;;;;;;;22.58;16.67;;;7.80;1.00;;;;;;5040640;28;20307;-73
2020/12/07 11:09:23;;;;;;;24.92;19.92;;;7.90;1.00;;;;;;5016973;28;20665;-74
2020/12/07 11:11:52;;;;;;;25.05;20.80;;;7.90;1.00;;;;;;5023497;28;20902;-74
2020/12/07 11:14:19;;;;;;;25.38;18.80;;;8.00;1.00;;;;;;5008961;28;21092;-73
2020/12/07 11:16:45;;;;;;;22.40;18.05;;;8.00;1.00;;;;;;5032699;28;20240;-73
2020/12/07 11:19:11;;;;;;;20.48;16.90;;;8.00;1.00;;;;;;5027232;28;20226;-72
2020/12/07 11:21:38;;;;;;;19.55;17.05;;;8.00;1.00;;;;;;5021084;28;20249;-72
2020/12/07 11:24:04;;;;;;;19.38;16.98;;;8.00;1.00;;;;;;5030032;28;20235;-74
2020/12/07 11:26:31;;;;;;;20.15;17.05;;;8.00;1.00;;;;;;5008787;28;20225;-72
2020/12/07 11:28:57;;;;;;;18.90;16.10;;;8.10;1.00;;;;;;5029033;28;20218;-73
2020/12/07 11:31:23;;;;;;;20.52;17.02;;;8.00;1.00;;;;;;5012479;28;20225;-73
2020/12/07 11:33:49;;;;;;;18.98;16.00;;;8.00;1.00;;;;;;5029992;28;20256;-75
2020/12/07 11:36:16;;;;;;;22.50;17.10;;;8.00;1.00;;;;;;4988720;28;20226;-73
2020/12/07 11:38:46;;;;;;;20.85;18.15;;;8.00;1.00;;;;;;5028492;28;20251;-72
2020/12/07 11:41:38;;;;;;;19.90;17.90;;;8.10;1.00;;;;;;5002804;28;20230;-72
2020/12/07 11:44:12;;;;;;;24.05;19.55;;;8.10;1.00;;;;;;5019441;28;20231;-72
2020/12/07 11:46:41;;;;;;;22.67;16.38;;;8.10;1.00;;;;;;5007297;28;20236;-73
2020/12/07 11:49:08;;;;;;;21.35;16.95;;;8.10;1.00;;;;;;5031719;28;20229;-72
2020/12/07 11:51:34;;;;;;;19.33;17.33;;;8.10;1.00;;;;;;5007974;28;20253;-73
2020/12/07 11:54:01;;;;;;;24.15;20.83;;;8.10;1.00;;;;;;5026454;28;20721;-73
2020/12/07 11:56:29;;;;;;;19.60;17.30;;;8.10;1.00;;;;;;5020312;28;20279;-73
2020/12/07 11:58:56;;;;;;;20.17;17.13;;;8.10;1.00;;;;;;5032859;28;20227;-74
2020/12/07 12:01:23;;;;;;;18.08;16.08;;;8.20;1.00;;;;;;5014152;28;20285;-74
2020/12/07 12:03:49;;;;;;;18.73;16.40;;;8.20;1.00;;;;;;5028015;28;20690;-74
2020/12/07 12:06:23;;;;;;;28.25;22.33;;;8.30;1.00;;;;;;5019415;28;20305;-74
2020/12/07 12:08:50;;;;;;;20.42;16.42;;;8.20;1.00;;;;;;5027820;28;20313;-73
2020/12/07 12:11:16;;;;;;;21.50;16.85;;;8.30;1.00;;;;;;5024749;28;20236;-72
2020/12/07 12:13:43;;;;;;;17.10;15.32;;;8.30;1.00;;;;;;5024724;28;20222;-73
2020/12/07 12:16:09;;;;;;;19.92;17.02;;;8.40;1.00;;;;;;5025639;28;20345;-72
2020/12/07 12:18:38;;;;;;;19.25;16.35;;;8.30;1.00;;;;;;5016716;28;20309;-71
2020/12/07 12:21:04;;;;;;;19.55;17.45;;;8.40;1.00;;;;;;5025678;28;20323;-72
2020/12/07 12:23:30;;;;;;;19.35;16.95;;;8.40;1.00;;;;;;5016358;28;20222;-72
2020/12/07 12:25:57;;;;;;;23.77;16.52;;;8.40;1.00;;;;;;5021830;28;20377;-73
2020/12/07 12:28:23;;;;;;;20.80;17.85;;;8.40;1.00;;;;;;5018446;28;20222;-74
2020/12/07 12:30:51;;;;;;;20.58;17.85;;;8.30;1.00;;;;;;5033557;28;20230;-74
2020/12/07 12:33:18;;;;;;;18.65;16.75;;;8.30;1.00;;;;;;5010305;28;20230;-74
2020/12/07 12:35:44;;;;;;;19.05;16.20;;;8.30;1.00;;;;;;5037614;28;20240;-73
2020/12/07 12:38:10;;;;;;;19.50;17.50;;;8.30;1.00;;;;;;5014310;28;20226;-73
2020/12/07 12:40:36;;;;;;;27.45;18.00;;;8.30;1.00;;;;;;5026830;28;20416;-72
2020/12/07 12:43:03;;;;;;;20.05;17.77;;;8.30;1.00;;;;;;5001349;28;20230;-73
2020/12/07 12:45:29;;;;;;;24.73;19.38;;;8.20;1.00;;;;;;5028035;28;20368;-73
2020/12/07 12:47:56;;;;;;;21.90;17.50;;;8.10;1.00;;;;;;5009674;28;20218;-74
2020/12/07 12:50:22;;;;;;;21.17;18.80;;;8.00;1.00;;;;;;5025750;28;20825;-73
2020/12/07 12:52:48;;;;;;;27.13;20.13;;;7.90;1.00;;;;;;5026068;28;20308;-74
2020/12/07 12:55:14;;;;;;;21.95;18.80;;;7.80;1.00;;;;;;5014983;28;20234;-73
2020/12/07 12:57:40;;;;;;;24.20;19.33;;;7.70;1.00;;;;;;5030647;28;20754;-74
2020/12/07 13:00:07;;;;;;;24.65;21.00;;;7.60;1.00;;;;;;5012265;28;20226;-73
2020/12/07 13:02:33;;;;;;;26.20;22.02;;;7.50;1.00;;;;;;5030222;28;20221;-73
2020/12/07 13:05:00;;;;;;;24.05;21.45;;;7.50;1.00;;;;;;5017179;28;20318;-74
2020/12/07 13:07:26;;;;;;;29.52;22.17;;;7.40;1.00;;;;;;5034878;28;20288;-74
2020/12/07 13:09:52;;;;;;;25.35;22.50;;;7.30;1.00;;;;;;5022752;28;20225;-72
2020/12/07 13:12:20;;;;;;;26.20;21.67;;;7.30;1.00;;;;;;5013388;28;20326;-73